createdAt,value
2023-03-03T00:00:26.418Z,56.20
2023-03-03T00:01:26.406Z,56.48
2023-03-03T00:02:26.426Z,56.20
2023-03-03T00:03:26.461Z,56.20
2023-03-03T00:04:26.346Z,56.11
2023-03-03T00:05:26.321Z,56.01
2023-03-03T00:06:26.300Z,56.30
2023-03-03T00:07:26.286Z,56.30
2023-03-03T00:08:26.261Z,56.11
2023-03-03T00:09:26.240Z,56.20
2023-03-03T00:10:26.216Z,56.30
2023-03-03T00:11:26.204Z,56.58
2023-03-03T00:12:26.185Z,56.30
2023-03-03T00:13:26.160Z,56.20
2023-03-03T00:14:26.153Z,56.48
2023-03-03T00:15:26.127Z,56.77
2023-03-03T00:16:26.217Z,56.86
2023-03-03T00:17:26.093Z,56.96
2023-03-03T00:18:26.060Z,56.77
2023-03-03T00:19:26.038Z,56.96
2023-03-03T00:20:26.024Z,56.96
2023-03-03T00:21:25.997Z,56.67
2023-03-03T00:22:25.979Z,56.39
2023-03-03T00:23:25.956Z,56.58
2023-03-03T00:24:25.940Z,56.65
2023-03-03T00:25:25.916Z,56.65
2023-03-03T00:26:25.901Z,56.86
2023-03-03T00:27:25.886Z,56.67
2023-03-03T00:28:25.871Z,56.39
2023-03-03T00:29:25.840Z,56.39
2023-03-03T00:30:25.826Z,56.58
2023-03-03T00:31:25.806Z,56.77
2023-03-03T00:32:25.882Z,56.86
2023-03-03T00:33:25.768Z,56.58
2023-03-03T00:34:25.742Z,56.67
2023-03-03T00:35:25.777Z,56.58
2023-03-03T00:36:25.702Z,56.48
2023-03-03T00:37:25.676Z,56.58
2023-03-03T00:38:25.666Z,56.58
2023-03-03T00:39:25.642Z,56.96
2023-03-03T00:40:25.617Z,56.77
2023-03-03T00:41:25.602Z,56.96
2023-03-03T00:42:25.580Z,56.58
2023-03-03T00:43:25.560Z,56.67
2023-03-03T00:44:25.541Z,56.67
2023-03-03T00:45:25.525Z,56.67
2023-03-03T00:46:25.520Z,56.55
2023-03-03T00:47:25.476Z,56.74
2023-03-03T00:48:25.455Z,56.58
2023-03-03T00:49:25.444Z,56.84
2023-03-03T00:50:25.422Z,56.55
2023-03-03T00:51:25.406Z,57.12
2023-03-03T00:52:25.388Z,56.93
2023-03-03T00:53:25.360Z,57.12
2023-03-03T00:54:25.337Z,56.93
2023-03-03T00:55:25.314Z,56.93
2023-03-03T00:56:25.293Z,56.84
2023-03-03T00:57:25.274Z,56.84
2023-03-03T00:58:25.252Z,57.12
2023-03-03T00:59:25.242Z,56.93
2023-03-03T01:00:25.224Z,56.84
2023-03-03T01:01:25.245Z,56.93
2023-03-03T01:02:25.202Z,56.84
2023-03-03T01:03:25.172Z,57.31
2023-03-03T01:04:25.135Z,57.31
2023-03-03T01:05:25.118Z,57.21
2023-03-03T01:06:25.096Z,57.12
2023-03-03T01:07:25.070Z,57.31
2023-03-03T01:08:25.054Z,57.21
2023-03-03T01:09:25.030Z,57.50
2023-03-03T01:10:25.010Z,57.31
2023-03-03T01:11:24.991Z,57.21
2023-03-03T01:12:24.972Z,57.31
2023-03-03T01:13:24.955Z,57.21
2023-03-03T01:14:24.957Z,57.50
2023-03-03T04:52:41.492Z,60.58
2023-03-03T04:53:21.224Z,60.77
2023-03-03T04:54:21.211Z,60.49
2023-03-03T04:55:21.238Z,60.77
2023-03-03T04:56:21.249Z,60.77
2023-03-03T04:57:21.162Z,60.77
2023-03-03T04:58:21.142Z,60.58
2023-03-03T04:59:21.168Z,60.58
2023-03-03T05:00:21.145Z,60.58
2023-03-03T05:01:21.069Z,60.58
2023-03-03T05:02:21.084Z,60.77
2023-03-03T05:03:21.007Z,60.86
2023-03-03T05:04:21.025Z,60.58
2023-03-03T05:05:20.993Z,60.77
2023-03-03T05:06:20.980Z,60.30
2023-03-03T05:07:20.938Z,61.05
2023-03-03T05:08:20.909Z,60.86
2023-03-03T05:09:20.917Z,60.96
2023-03-03T05:10:20.864Z,61.05
2023-03-03T05:11:20.845Z,61.24
2023-03-03T05:12:20.814Z,61.24
2023-03-03T05:13:20.798Z,60.86
2023-03-03T05:14:20.821Z,61.05
2023-03-03T05:15:20.748Z,61.24
2023-03-03T05:16:20.744Z,61.15
2023-03-03T05:17:20.718Z,61.33
2023-03-03T05:18:20.696Z,61.33
2023-03-03T05:19:20.665Z,61.43
2023-03-03T05:20:20.653Z,61.15
2023-03-03T05:21:20.620Z,61.15
2023-03-03T05:22:20.603Z,61.24
2023-03-03T05:23:20.587Z,60.96
2023-03-03T05:24:20.563Z,60.86
2023-03-03T05:25:20.542Z,60.86
2023-03-03T05:26:20.515Z,61.05
2023-03-03T05:27:20.520Z,61.15
2023-03-03T05:28:20.506Z,61.15
2023-03-03T05:29:20.454Z,60.96
2023-03-03T05:30:20.477Z,60.96
2023-03-03T05:31:20.440Z,60.86
2023-03-03T05:32:20.464Z,61.24
2023-03-03T05:33:20.365Z,61.15
2023-03-03T05:34:20.373Z,61.15
2023-03-03T05:35:20.382Z,61.05
2023-03-03T05:36:20.307Z,61.15
2023-03-03T05:37:20.298Z,61.33
2023-03-03T05:38:20.270Z,61.33
2023-03-03T05:39:20.248Z,61.33
2023-03-03T05:40:20.219Z,61.52
2023-03-03T05:41:20.235Z,61.33
2023-03-03T05:42:20.347Z,61.43
2023-03-03T05:43:20.157Z,61.43
2023-03-03T05:44:20.820Z,61.15
2023-03-03T05:45:20.119Z,61.43
2023-03-03T05:46:20.176Z,61.15
2023-03-03T05:47:20.072Z,61.61
2023-03-03T05:48:20.048Z,61.71
2023-03-03T05:49:20.035Z,61.52
2023-03-03T05:50:20.010Z,61.71
2023-03-03T05:51:20.002Z,61.61
2023-03-03T05:52:19.968Z,61.61
2023-03-03T05:53:19.963Z,61.43
2023-03-03T05:54:19.962Z,61.61
2023-03-03T05:55:19.900Z,61.43
2023-03-03T05:56:19.926Z,61.71
2023-03-03T05:57:19.859Z,61.90
2023-03-03T05:58:19.839Z,61.80
2023-03-03T05:59:19.818Z,61.90
2023-03-03T06:00:19.828Z,62.09
2023-03-03T06:01:19.776Z,61.90
2023-03-03T06:02:19.756Z,61.90
2023-03-03T06:03:19.773Z,61.90
2023-03-03T06:04:19.745Z,61.90
2023-03-03T06:05:19.694Z,61.90
2023-03-03T06:06:19.672Z,62.09
2023-03-03T06:07:19.662Z,61.99
2023-03-03T06:08:19.632Z,61.99
2023-03-03T06:09:19.610Z,61.71
2023-03-03T06:10:19.587Z,61.90
2023-03-03T06:11:19.564Z,61.71
2023-03-03T06:12:19.547Z,61.90
2023-03-03T06:13:19.532Z,61.61
2023-03-03T06:14:19.518Z,61.80
2023-03-03T06:15:19.600Z,61.61
2023-03-03T06:16:19.554Z,61.52
2023-03-03T06:17:19.438Z,61.61
2023-03-03T06:18:19.426Z,61.43
2023-03-03T06:19:19.395Z,61.52
2023-03-03T06:20:19.388Z,61.99
2023-03-03T06:21:19.352Z,61.80
2023-03-03T06:22:19.335Z,61.43
2023-03-03T06:23:19.308Z,61.24
2023-03-03T06:24:19.295Z,61.52
2023-03-03T06:25:19.290Z,61.52
2023-03-03T06:26:19.250Z,61.24
2023-03-03T06:27:19.225Z,61.33
2023-03-03T06:28:19.217Z,61.43
2023-03-03T06:29:19.190Z,61.52
2023-03-03T06:30:19.676Z,61.33
2023-03-03T06:31:19.581Z,61.43
2023-03-03T06:32:19.156Z,61.43
2023-03-03T06:33:19.098Z,61.24
2023-03-03T06:34:19.073Z,61.43
2023-03-03T06:35:19.186Z,61.46
2023-03-03T06:36:19.033Z,61.46
2023-03-03T06:37:19.008Z,61.15
2023-03-03T06:38:19.009Z,61.74
2023-03-03T06:39:18.978Z,61.74
2023-03-03T06:40:18.946Z,61.55
2023-03-03T06:41:18.935Z,61.65
2023-03-03T06:42:18.905Z,61.84
2023-03-03T06:43:18.895Z,61.84
2023-03-03T06:44:18.871Z,61.46
2023-03-03T06:45:18.864Z,61.65
2023-03-03T06:46:18.833Z,61.74
2023-03-03T06:47:18.806Z,61.46
2023-03-03T06:48:18.787Z,61.74
2023-03-03T06:49:18.769Z,61.74
2023-03-03T06:50:18.736Z,61.46
2023-03-03T06:51:18.737Z,61.55
2023-03-03T06:52:18.692Z,61.84
2023-03-03T06:53:18.680Z,61.74
2023-03-03T06:54:18.666Z,61.46
2023-03-03T06:55:18.644Z,61.46
2023-03-03T06:56:18.620Z,61.46
2023-03-03T06:57:18.586Z,61.27
2023-03-03T06:58:18.578Z,61.18
2023-03-03T06:59:18.543Z,61.55
2023-03-03T07:00:18.538Z,61.55
2023-03-03T07:01:18.534Z,61.49
2023-03-03T07:02:18.490Z,61.58
2023-03-03T07:03:18.476Z,61.49
2023-03-03T07:04:18.461Z,61.40
2023-03-03T07:05:18.450Z,61.49
2023-03-03T07:06:18.419Z,61.68
2023-03-03T07:07:18.389Z,61.49
2023-03-03T07:08:18.375Z,61.58
2023-03-03T07:09:18.361Z,61.58
2023-03-03T07:10:18.329Z,61.40
2023-03-03T07:11:18.320Z,61.21
2023-03-03T07:12:18.290Z,61.30
2023-03-03T07:13:18.276Z,61.24
2023-03-03T07:14:18.251Z,60.86
2023-03-03T07:15:18.243Z,60.77
2023-03-03T07:16:18.235Z,60.67
2023-03-03T07:17:25.419Z,60.86
2023-03-03T07:19:22.173Z,60.23
2023-03-03T07:20:22.124Z,60.33
2023-03-03T07:22:26.145Z,59.85
2023-03-03T07:23:26.063Z,59.57
2023-03-03T07:25:30.052Z,59.41
2023-03-03T07:26:29.996Z,59.41
2023-03-03T07:28:22.902Z,59.41
2023-03-03T07:29:22.864Z,58.94
2023-03-03T07:30:22.842Z,58.84
2023-03-03T07:31:22.840Z,58.97
2023-03-03T07:32:22.828Z,58.87
2023-03-03T07:33:22.782Z,58.78
2023-03-03T07:34:22.766Z,58.97
2023-03-03T07:35:22.780Z,58.68
2023-03-03T07:36:22.723Z,58.68
2023-03-03T07:37:22.704Z,58.49
2023-03-03T07:38:22.684Z,58.68
2023-03-03T07:39:22.664Z,58.40
2023-03-03T07:40:22.646Z,58.43
2023-03-03T07:41:22.640Z,58.62
2023-03-03T07:42:22.611Z,59.00
2023-03-03T07:43:22.589Z,58.81
2023-03-03T07:44:22.574Z,58.52
2023-03-03T07:45:22.577Z,58.62
2023-03-03T07:46:22.560Z,58.43
2023-03-03T07:47:22.515Z,58.43
2023-03-03T07:48:22.500Z,58.62
2023-03-03T07:49:22.476Z,58.52
2023-03-03T07:50:22.459Z,58.81
2023-03-03T07:51:22.452Z,58.90
2023-03-03T07:52:22.427Z,58.74
2023-03-03T07:53:22.402Z,58.55
2023-03-03T07:54:22.435Z,58.45
2023-03-03T07:55:22.362Z,58.26
2023-03-03T07:56:22.344Z,57.98
2023-03-03T07:57:22.329Z,57.89
2023-03-03T07:58:22.303Z,57.89
2023-03-03T07:59:22.302Z,57.98
2023-03-03T08:00:22.298Z,57.98
2023-03-03T08:01:22.253Z,58.11
2023-03-03T08:02:22.229Z,57.54
2023-03-03T08:03:22.211Z,57.44
2023-03-03T08:04:22.322Z,57.44
2023-03-03T08:05:22.284Z,57.06
2023-03-03T08:06:22.154Z,57.57
2023-03-03T08:07:22.153Z,57.38
2023-03-03T08:08:22.128Z,57.19
2023-03-03T08:09:22.103Z,57.28
2023-03-03T08:10:22.093Z,56.93
2023-03-03T08:11:22.065Z,56.84
2023-03-03T08:12:22.040Z,56.65
2023-03-03T08:13:22.044Z,56.08
2023-03-03T08:14:22.000Z,55.98
2023-03-03T08:15:21.987Z,56.65
2023-03-03T08:16:22.017Z,56.65
2023-03-03T08:17:21.945Z,56.65
2023-03-03T08:18:21.926Z,56.65
2023-03-03T08:19:21.907Z,56.55
2023-03-03T08:20:21.889Z,56.46
2023-03-03T08:21:21.878Z,56.36
2023-03-03T08:22:21.849Z,56.27
2023-03-03T08:23:21.855Z,56.46
2023-03-03T08:24:21.822Z,56.55
2023-03-03T08:25:21.794Z,56.74
2023-03-03T08:26:21.796Z,56.34
2023-03-03T08:27:21.757Z,56.93
2023-03-03T08:28:21.738Z,56.74
2023-03-03T08:29:21.720Z,56.74
2023-03-03T08:30:21.702Z,56.84
2023-03-03T08:31:38.230Z,56.74
2023-03-03T08:32:21.772Z,56.93
2023-03-03T08:33:21.649Z,56.65
2023-03-03T08:34:21.631Z,56.84
2023-03-03T08:35:21.672Z,57.03
2023-03-03T08:36:21.618Z,56.84
2023-03-03T08:37:21.590Z,56.49
2023-03-03T08:38:21.557Z,56.77
2023-03-03T08:39:21.540Z,56.39
2023-03-03T08:40:21.540Z,55.82
2023-03-03T08:41:21.554Z,55.85
2023-03-03T08:42:21.515Z,55.66
2023-03-03T08:43:21.497Z,55.30
2023-03-03T08:44:21.458Z,54.93
2023-03-03T08:45:21.435Z,54.36
2023-03-03T08:46:21.461Z,54.45
2023-03-03T08:47:21.403Z,54.90
2023-03-03T08:48:21.393Z,55.02
2023-03-03T08:49:21.366Z,55.02
2023-03-03T08:50:21.350Z,54.93
2023-03-03T08:51:21.344Z,54.93
2023-03-03T08:52:21.320Z,54.64
2023-03-03T08:53:21.304Z,54.57
2023-03-03T08:54:21.290Z,55.08
2023-03-03T08:55:21.262Z,54.72
2023-03-03T08:56:21.247Z,53.61
2023-03-03T08:57:21.234Z,53.35
2023-03-03T08:58:23.820Z,53.00
2023-03-03T08:59:21.198Z,52.26
2023-03-03T09:00:21.201Z,52.19
2023-03-03T09:01:21.208Z,52.19
2023-03-03T09:02:21.150Z,51.74
2023-03-03T09:03:21.144Z,51.57
2023-03-03T09:04:21.143Z,51.24
2023-03-03T09:05:21.116Z,49.95
2023-03-03T09:06:21.088Z,47.87
2023-03-03T09:07:21.099Z,47.18
2023-03-03T09:08:21.056Z,47.71
2023-03-03T09:09:21.049Z,48.09
2023-03-03T09:10:21.026Z,48.93
2023-03-03T09:11:21.016Z,49.30
2023-03-03T09:12:21.008Z,49.95
2023-03-03T09:13:20.984Z,50.55
2023-03-03T09:14:20.980Z,50.45
2023-03-03T09:15:20.962Z,50.07
2023-03-03T09:16:20.986Z,50.45
2023-03-03T09:17:20.926Z,49.88
2023-03-03T09:18:20.908Z,50.07
2023-03-03T09:19:20.892Z,50.35
2023-03-03T09:20:20.885Z,49.98
2023-03-03T09:21:20.864Z,50.09
2023-03-03T09:22:20.862Z,49.40
2023-03-03T09:23:20.838Z,49.49
2023-03-03T09:24:20.825Z,49.28
2023-03-03T09:25:20.811Z,49.78
2023-03-03T09:26:20.796Z,50.04
2023-03-03T09:27:20.786Z,50.04
2023-03-03T09:28:20.766Z,50.12
2023-03-03T09:29:20.758Z,50.40
2023-03-03T09:30:20.737Z,50.78
2023-03-03T09:31:20.748Z,51.07
2023-03-03T09:32:20.730Z,51.26
2023-03-03T09:33:20.692Z,50.71
2023-03-03T09:34:20.685Z,50.98
2023-03-03T09:35:20.682Z,50.59
2023-03-03T09:36:20.646Z,51.00
2023-03-03T09:37:20.644Z,51.09
2023-03-03T09:38:20.624Z,50.62
2023-03-03T09:39:20.624Z,50.14
2023-03-03T09:40:20.599Z,50.35
2023-03-03T09:41:20.585Z,50.02
2023-03-03T09:42:20.576Z,48.40
2023-03-03T09:43:20.554Z,46.17
2023-03-03T09:44:20.540Z,44.79
2023-03-03T09:45:20.529Z,44.41
2023-03-03T09:46:20.531Z,44.53
2023-03-03T09:47:22.326Z,44.82
2023-03-03T09:48:20.493Z,44.82
2023-03-03T09:49:20.471Z,45.78
2023-03-03T09:50:20.469Z,46.16
2023-03-03T09:51:20.448Z,46.74
2023-03-03T09:52:20.437Z,47.41
2023-03-03T09:53:20.427Z,47.89
2023-03-03T09:54:20.417Z,48.08
2023-03-03T09:55:20.406Z,49.02
2023-03-03T09:56:20.399Z,49.22
2023-03-03T09:57:20.396Z,49.63
2023-03-03T09:58:20.375Z,49.07
2023-03-03T09:59:20.368Z,47.60
2023-03-03T10:00:20.365Z,45.36
2023-03-03T10:01:20.340Z,43.98
2023-03-03T10:02:20.328Z,42.65
2023-03-03T10:03:20.343Z,42.24
2023-03-03T10:04:20.343Z,42.89
2023-03-03T10:05:20.325Z,43.57
2023-03-03T10:06:20.304Z,44.12
2023-03-03T10:07:20.285Z,44.27
2023-03-03T10:08:20.278Z,44.81
2023-03-03T10:09:20.271Z,45.97
2023-03-03T10:10:20.261Z,45.84
2023-03-03T10:11:20.285Z,46.42
2023-03-03T10:12:20.246Z,46.93
2023-03-03T10:13:20.234Z,47.34
2023-03-03T10:14:20.230Z,46.86
2023-03-03T10:15:20.234Z,46.78
2023-03-03T10:16:20.269Z,46.42
2023-03-03T10:17:20.204Z,46.61
2023-03-03T10:18:20.200Z,46.51
2023-03-03T10:19:20.189Z,46.33
2023-03-03T10:20:20.188Z,45.76
2023-03-03T10:21:20.177Z,45.89
2023-03-03T10:22:20.168Z,45.04
2023-03-03T10:23:20.161Z,44.38
2023-03-03T10:24:20.155Z,44.87
2023-03-03T10:25:20.174Z,44.40
2023-03-03T10:26:20.140Z,44.31
2023-03-03T10:27:20.140Z,44.09
2023-03-03T10:28:20.134Z,44.17
2023-03-03T10:29:22.860Z,44.84
2023-03-03T10:30:33.227Z,44.65
2023-03-03T10:31:20.759Z,44.96
2023-03-03T10:32:20.838Z,44.48
2023-03-03T10:33:20.290Z,44.89
2023-03-03T10:34:20.095Z,44.60
2023-03-03T10:35:20.613Z,44.31
2023-03-03T10:36:20.159Z,44.60
2023-03-03T10:37:20.089Z,44.21
2023-03-03T10:38:20.088Z,43.90
2023-03-03T10:39:20.075Z,44.19
2023-03-03T10:40:20.096Z,43.63
2023-03-03T10:41:20.069Z,44.12
2023-03-03T10:42:20.059Z,44.12
2023-03-03T10:43:31.042Z,44.02
2023-03-03T10:44:20.052Z,43.27
2023-03-03T10:45:20.048Z,43.37
2023-03-03T10:46:20.142Z,43.27
2023-03-03T10:47:20.042Z,43.17
2023-03-03T10:48:20.037Z,42.59
2023-03-03T10:49:20.037Z,42.78
2023-03-03T10:50:20.089Z,42.22
2023-03-03T10:51:20.022Z,42.24
2023-03-03T10:52:20.043Z,41.83
2023-03-03T10:53:20.019Z,41.93
2023-03-03T10:54:20.008Z,42.41
2023-03-03T10:55:20.015Z,41.95
2023-03-03T10:56:20.009Z,42.07
2023-03-03T10:57:20.003Z,41.41
2023-03-03T10:58:20.056Z,41.33
2023-03-03T10:59:20.003Z,40.97
2023-03-03T11:00:20.067Z,40.39
2023-03-03T11:01:21.018Z,40.41
2023-03-03T11:02:19.989Z,40.23
2023-03-03T11:03:19.980Z,39.84
2023-03-03T11:04:20.031Z,39.92
2023-03-03T11:05:19.977Z,40.31
2023-03-03T11:06:19.973Z,40.21
2023-03-03T11:07:19.976Z,40.01
2023-03-03T11:08:19.967Z,39.94
2023-03-03T11:09:19.962Z,39.45
2023-03-03T11:10:20.020Z,39.92
2023-03-03T11:11:20.221Z,39.72
2023-03-03T11:12:22.431Z,39.62
2023-03-03T11:13:19.956Z,40.01
2023-03-03T11:14:19.949Z,40.00
2023-03-03T11:15:19.952Z,39.92
2023-03-03T11:16:19.962Z,39.34
2023-03-03T11:17:19.946Z,39.16
2023-03-03T11:18:22.295Z,39.04
2023-03-03T11:19:19.940Z,39.32
2023-03-03T11:20:19.953Z,39.32
2023-03-03T11:21:19.943Z,38.91
2023-03-03T11:22:19.940Z,39.11
2023-03-03T11:23:19.934Z,39.29
2023-03-03T11:24:19.931Z,39.12
2023-03-03T11:25:19.936Z,39.03
2023-03-03T11:26:19.943Z,38.85
2023-03-03T11:27:19.928Z,37.98
2023-03-03T11:28:19.935Z,37.60
2023-03-03T11:29:19.928Z,36.93
2023-03-03T11:30:19.927Z,36.83
2023-03-03T11:31:20.036Z,36.47
2023-03-03T11:32:19.960Z,36.00
2023-03-03T11:33:19.925Z,35.34
2023-03-03T11:34:19.924Z,34.68
2023-03-03T11:35:20.016Z,34.53
2023-03-03T11:36:19.922Z,33.41
2023-03-03T11:37:19.916Z,32.37
2023-03-03T11:38:19.917Z,31.52
2023-03-03T11:39:19.911Z,31.04
2023-03-03T11:40:19.911Z,30.40
2023-03-03T11:41:19.908Z,29.53
2023-03-03T11:42:21.454Z,29.45
2023-03-03T11:43:35.396Z,28.61
2023-03-03T11:44:19.903Z,28.12
2023-03-03T11:45:19.928Z,27.45
2023-03-03T11:46:19.949Z,27.28
2023-03-03T11:47:19.905Z,26.62
2023-03-03T11:48:19.904Z,26.14
2023-03-03T11:49:19.903Z,25.84
2023-03-03T11:50:19.895Z,25.28
2023-03-03T11:51:19.906Z,25.09
2023-03-03T11:52:19.899Z,24.62
2023-03-03T11:53:19.917Z,24.22
2023-03-03T11:54:19.892Z,23.95
2023-03-03T11:55:22.547Z,23.37
2023-03-03T11:56:19.892Z,23.00
2023-03-03T11:57:19.891Z,22.40
2023-03-03T11:58:19.889Z,22.22
2023-03-03T11:59:19.888Z,22.13
2023-03-03T12:00:19.900Z,22.03
2023-03-03T12:01:19.901Z,21.83
2023-03-03T12:02:19.972Z,21.91
2023-03-03T12:03:19.886Z,21.53
2023-03-03T12:04:19.886Z,20.76
2023-03-03T12:05:19.902Z,20.76
2023-03-03T12:06:19.889Z,21.05
2023-03-03T12:07:20.123Z,20.73
2023-03-03T12:08:19.914Z,20.95
2023-03-03T12:09:19.880Z,20.65
2023-03-03T12:10:19.887Z,20.46
2023-03-03T12:11:19.875Z,20.07
2023-03-03T12:12:19.880Z,19.48
2023-03-03T12:13:19.876Z,19.29
2023-03-03T12:14:19.880Z,19.27
2023-03-03T12:15:19.872Z,19.65
2023-03-03T12:16:19.919Z,19.65
2023-03-03T12:17:19.881Z,19.26
2023-03-03T12:18:19.861Z,19.35
2023-03-03T12:19:19.861Z,19.81
2023-03-03T12:20:19.859Z,19.42
2023-03-03T12:21:19.853Z,19.49
2023-03-03T12:22:19.870Z,20.38
2023-03-03T12:23:19.876Z,19.41
2023-03-03T12:24:19.873Z,19.10
2023-03-03T12:25:19.879Z,19.41
2023-03-03T12:26:19.867Z,19.21
2023-03-03T12:27:19.870Z,19.12
2023-03-03T12:28:19.861Z,19.22
2023-03-03T12:29:19.861Z,19.33
2023-03-03T12:30:19.859Z,19.14
2023-03-03T12:31:19.865Z,18.82
2023-03-03T12:32:19.918Z,19.01
2023-03-03T12:33:19.848Z,19.22
2023-03-03T12:34:19.858Z,19.03
2023-03-03T12:35:19.896Z,18.92
2023-03-03T12:36:19.837Z,19.01
2023-03-03T12:37:19.865Z,19.21
2023-03-03T12:38:19.834Z,19.11
2023-03-03T12:39:33.712Z,18.62
2023-03-03T12:40:19.829Z,19.09
2023-03-03T12:41:19.830Z,19.20
2023-03-03T12:42:19.814Z,19.02
2023-03-03T12:43:19.817Z,18.63
2023-03-03T12:44:19.809Z,18.73
2023-03-03T12:45:19.812Z,18.63
2023-03-03T12:46:19.870Z,18.84
2023-03-03T12:47:22.238Z,18.52
2023-03-03T12:48:19.789Z,18.71
2023-03-03T12:49:19.786Z,19.07
2023-03-03T12:50:19.788Z,19.07
2023-03-03T12:51:19.788Z,19.26
2023-03-03T12:52:19.779Z,19.17
2023-03-03T12:53:19.778Z,18.98
2023-03-03T12:54:19.763Z,18.88
2023-03-03T12:55:19.781Z,18.70
2023-03-03T12:56:19.763Z,18.21
2023-03-03T12:57:19.753Z,18.01
2023-03-03T12:58:19.750Z,17.72
2023-03-03T12:59:19.766Z,17.82
2023-03-03T13:00:19.762Z,17.63
2023-03-03T13:01:19.749Z,17.93
2023-03-03T13:02:19.744Z,18.41
2023-03-03T13:03:19.747Z,18.49
2023-03-03T13:04:19.795Z,18.49
2023-03-03T13:05:19.722Z,18.69
2023-03-03T13:06:19.706Z,18.49
2023-03-03T13:07:19.787Z,18.35
2023-03-03T13:08:19.740Z,19.05
2023-03-03T13:09:19.756Z,19.06
2023-03-03T13:10:19.690Z,18.57
2023-03-03T13:11:19.694Z,18.38
2023-03-03T13:12:19.678Z,18.48
2023-03-03T13:13:19.678Z,18.57
2023-03-03T13:14:19.664Z,18.38
2023-03-03T13:15:21.340Z,18.38
2023-03-03T13:16:22.143Z,18.18
2023-03-03T13:17:19.757Z,18.10
2023-03-03T13:18:19.652Z,17.60
2023-03-03T13:19:19.641Z,17.59
2023-03-03T13:20:19.641Z,17.98
2023-03-03T13:21:19.632Z,18.38
2023-03-03T13:22:19.633Z,18.18
2023-03-03T13:23:19.623Z,18.17
2023-03-03T13:24:19.768Z,18.46
2023-03-03T13:25:19.669Z,18.56
2023-03-03T13:26:19.653Z,18.33
2023-03-03T13:27:19.622Z,19.00
2023-03-03T13:28:19.600Z,19.09
2023-03-03T13:29:19.617Z,19.08
2023-03-03T13:30:19.594Z,19.08
2023-03-03T13:31:19.617Z,19.54
2023-03-03T13:32:19.607Z,19.24
2023-03-03T13:33:19.570Z,19.82
2023-03-03T13:34:19.559Z,19.44
2023-03-03T13:35:19.597Z,19.32
2023-03-03T13:36:19.570Z,20.36
2023-03-03T13:37:19.539Z,20.53
2023-03-03T13:38:19.543Z,20.90
2023-03-03T13:39:19.533Z,22.10
2023-03-03T13:40:19.522Z,23.88
2023-03-03T13:41:19.512Z,25.95
2023-03-03T13:42:19.502Z,27.56
2023-03-03T13:43:19.495Z,28.66
2023-03-03T13:44:19.492Z,30.07
2023-03-03T13:45:19.478Z,31.48
2023-03-03T13:46:19.475Z,32.03
2023-03-03T13:47:19.469Z,32.86
2023-03-03T13:48:19.454Z,34.07
2023-03-03T13:49:19.444Z,34.15
2023-03-03T13:50:19.432Z,34.44
2023-03-03T13:51:19.428Z,35.19
2023-03-03T13:52:19.439Z,35.38
2023-03-03T13:53:19.400Z,35.75
2023-03-03T13:54:19.397Z,35.84
2023-03-03T13:55:21.532Z,35.75
2023-03-03T13:56:19.384Z,35.92
2023-03-03T13:57:19.365Z,36.02
2023-03-03T13:58:19.354Z,35.83
2023-03-03T13:59:19.339Z,36.10
2023-03-03T14:00:19.353Z,35.98
2023-03-03T14:01:19.356Z,36.38
2023-03-03T14:02:19.312Z,36.77
2023-03-03T14:03:19.294Z,36.47
2023-03-03T14:04:19.494Z,36.46
2023-03-03T14:05:19.272Z,36.46
2023-03-03T14:06:19.257Z,36.46
2023-03-03T14:07:19.347Z,36.36
2023-03-03T14:08:19.240Z,36.44
2023-03-03T14:09:19.222Z,36.63
2023-03-03T14:10:19.222Z,36.82
2023-03-03T14:11:19.211Z,37.21
2023-03-03T14:12:19.197Z,37.40
2023-03-03T14:13:19.391Z,37.21
2023-03-03T14:14:19.171Z,37.11
2023-03-03T14:15:19.153Z,36.92
2023-03-03T14:16:19.200Z,36.92
2023-03-03T14:17:21.315Z,36.82
2023-03-03T14:18:19.128Z,36.82
2023-03-03T14:19:19.104Z,37.02
2023-03-03T14:20:19.124Z,37.21
2023-03-03T14:21:19.734Z,37.30
2023-03-03T14:22:19.381Z,37.40
2023-03-03T14:23:19.062Z,37.40
2023-03-03T14:24:19.041Z,37.38
2023-03-03T14:25:19.041Z,37.19
2023-03-03T14:26:19.034Z,37.76
2023-03-03T14:27:19.057Z,38.05
2023-03-03T14:28:18.996Z,38.14
2023-03-03T14:29:18.979Z,38.14
2023-03-03T14:30:18.973Z,37.74
2023-03-03T14:31:19.106Z,38.22
2023-03-03T14:32:18.968Z,38.12
2023-03-03T14:33:18.925Z,38.12
2023-03-03T14:34:18.926Z,38.12
2023-03-03T14:35:18.904Z,37.84
2023-03-03T14:36:18.897Z,37.92
2023-03-03T14:37:18.887Z,38.01
2023-03-03T14:38:18.872Z,38.39
2023-03-03T14:39:18.847Z,38.49
2023-03-03T14:40:18.840Z,38.30
2023-03-03T14:41:18.821Z,38.68
2023-03-03T14:42:18.811Z,38.68
2023-03-03T14:43:18.808Z,38.78
2023-03-03T14:44:18.784Z,38.78
2023-03-03T14:45:29.060Z,39.06
2023-03-03T14:46:18.785Z,38.96
2023-03-03T14:47:18.743Z,38.78
2023-03-03T14:48:18.735Z,38.76
2023-03-03T14:49:18.732Z,38.66
2023-03-03T14:50:18.710Z,39.14
2023-03-03T14:51:18.690Z,39.32
2023-03-03T14:52:18.694Z,39.32
2023-03-03T14:53:18.666Z,38.95
2023-03-03T14:54:18.656Z,39.23
2023-03-03T14:55:18.636Z,39.14
2023-03-03T14:56:18.630Z,39.32
2023-03-03T14:57:18.612Z,39.40
2023-03-03T14:58:18.609Z,39.59
2023-03-03T14:59:18.585Z,39.59
2023-03-03T15:00:18.572Z,39.50
2023-03-03T15:01:18.612Z,39.59
2023-03-03T15:02:18.554Z,39.69
2023-03-03T15:03:18.553Z,39.50
2023-03-03T15:04:18.522Z,39.78
2023-03-03T15:05:18.584Z,39.76
2023-03-03T15:06:18.495Z,39.86
2023-03-03T15:07:18.485Z,39.86
2023-03-03T15:08:18.597Z,40.15
2023-03-03T15:09:18.461Z,39.86
2023-03-03T15:10:18.439Z,40.05
2023-03-03T15:11:18.422Z,40.12
2023-03-03T15:12:18.410Z,40.32
2023-03-03T15:13:18.399Z,40.41
2023-03-03T15:14:18.380Z,40.80
2023-03-03T15:15:18.381Z,40.80
2023-03-03T15:16:18.421Z,40.60
2023-03-03T15:17:18.352Z,40.51
2023-03-03T15:18:18.337Z,40.41
2023-03-03T15:19:18.311Z,40.80
2023-03-03T15:20:18.301Z,40.68
2023-03-03T15:21:18.284Z,40.70
2023-03-03T15:22:18.281Z,40.77
2023-03-03T15:23:18.255Z,40.97
2023-03-03T15:24:18.272Z,41.06
2023-03-03T15:25:20.975Z,41.06
2023-03-03T15:26:18.214Z,40.97
2023-03-03T15:27:18.198Z,40.77
2023-03-03T15:28:18.252Z,41.25
2023-03-03T15:29:18.168Z,41.16
2023-03-03T15:30:18.152Z,41.33
2023-03-03T15:31:18.223Z,41.33
2023-03-03T15:32:18.181Z,41.33
2023-03-03T15:33:18.170Z,41.52
2023-03-03T15:34:18.096Z,41.52
2023-03-03T15:35:18.080Z,41.59
2023-03-03T15:36:18.065Z,41.49
2023-03-03T15:37:18.057Z,41.78
2023-03-03T15:38:18.037Z,42.07
2023-03-03T15:39:18.049Z,42.25
2023-03-03T15:40:18.056Z,41.88
2023-03-03T15:41:17.997Z,41.88
2023-03-03T15:42:17.984Z,42.07
2023-03-03T15:43:17.963Z,42.07
2023-03-03T15:44:17.950Z,42.07
2023-03-03T15:45:17.926Z,42.07
2023-03-03T15:46:17.946Z,42.07
2023-03-03T15:47:17.902Z,42.44
2023-03-03T15:48:17.890Z,42.33
2023-03-03T15:49:17.869Z,42.35
2023-03-03T15:50:17.855Z,42.35
2023-03-03T15:51:17.844Z,42.43
2023-03-03T15:52:17.826Z,42.43
2023-03-03T15:53:17.809Z,42.43
2023-03-03T15:54:17.801Z,42.61
2023-03-03T15:55:17.780Z,42.61
2023-03-03T15:56:17.770Z,42.61
2023-03-03T15:57:17.749Z,42.71
2023-03-03T15:58:17.737Z,42.69
2023-03-03T15:59:17.720Z,42.69
2023-03-03T16:00:17.705Z,42.97
2023-03-03T16:01:17.748Z,43.26
2023-03-03T16:02:17.658Z,43.07
2023-03-03T16:03:17.778Z,42.97
2023-03-03T16:04:17.625Z,43.35
2023-03-03T16:05:17.612Z,43.26
2023-03-03T16:06:17.600Z,43.07
2023-03-03T16:07:17.591Z,43.52
2023-03-03T16:08:17.578Z,43.43
2023-03-03T16:09:17.557Z,43.24
2023-03-03T16:10:17.564Z,43.62
2023-03-03T16:11:17.517Z,43.80
2023-03-03T16:12:17.505Z,43.43
2023-03-03T16:13:17.494Z,43.62
2023-03-03T16:14:17.471Z,44.19
2023-03-03T16:15:17.498Z,44.19
2023-03-03T16:16:17.518Z,43.69
2023-03-03T16:17:17.422Z,44.07
2023-03-03T16:18:17.427Z,44.35
2023-03-03T16:19:17.406Z,44.54
2023-03-03T16:20:17.378Z,44.45
2023-03-03T16:21:17.382Z,44.35
2023-03-03T16:22:17.347Z,44.26
2023-03-03T16:23:17.340Z,44.07
2023-03-03T16:24:17.340Z,44.17
2023-03-03T16:25:17.318Z,44.45
2023-03-03T16:26:17.295Z,44.45
2023-03-03T16:27:17.269Z,45.00
2023-03-03T16:28:17.256Z,44.34
2023-03-03T16:29:17.241Z,44.62
2023-03-03T16:30:17.224Z,44.71
2023-03-03T16:31:17.252Z,45.19
2023-03-03T16:32:17.225Z,45.09
2023-03-03T16:33:17.182Z,45.09